Stillwater, NJ (07875)

4:30 AM EDT on October 24, 2014 (GMT -0400)
Crandon Lakes | Change Station
CLOSE
Current Station
Personal Weather Station
Location: Newton, NJ
Elevation: 869 ft
Nearby Weather Stations

Elev 869 ft 41.13 °N, 74.84 °W | Updated 3 seconds ago

Overcast
Overcast
48.0 °F
Feels Like 44 °F
N
10.0
Wind Variable Wind from West
Gusts 13.0 mph

Today
High -- | Low -- °F
--% Chance of Precip.
Yesterday
High -- | Low -- °F
Precip. -- in
7:21 AM 6:05 PM
New Moon, 0% visible
Pressure 29.81 in
Visibility 10.0 miles
Clouds Mostly Cloudy 2100 ft
Mostly Cloudy 6000 ft
Windchill 44 °F
Dew Point 47 °F
Humidity 93%
Rainfall 0.00 in
Snow Depth Not available.
UV 0 out of 12
Pollen .10 out of 12
Air Quality Not available.
Flu Activity Sporadic
METAR KFWN 240753Z AUTO 35007KT 10SM BKN021 BKN060 11/06 A2981 RMK AO2 SLP094 T01060056

More Conditions Fewer Conditions

Pressure 29.81 in
Visibility 10.0 miles
Clouds Mostly Cloudy 2100 ft
Mostly Cloudy 6000 ft
Windchill 44 °F
Dew Point 47 °F
Humidity 93%
Rainfall 0.00 in
Snow Depth Not available.
UV 0 out of 12
Pollen .10 out of 12
Air Quality Not available.
Flu Activity Sporadic
METAR KFWN 240753Z AUTO 35007KT 10SM BKN021 BKN060 11/06 A2981 RMK AO2 SLP094 T01060056

More Conditions Fewer Conditions

10-Day Weather Forecast

Almanac

Astronomy

Oct. 24, 2014 Rise Set
Actual Time 7:21 AM EDT 6:05 PM EDT
Civil Twilight 6:52 AM EDT 6:33 PM EDT
Nautical Twilight 6:20 AM EDT 7:05 PM EDT
Astronomical Twilight 5:48 AM EDT 7:37 PM EDT
Moon 7:57 AM EDT 6:43 PM EDT
Length of Visible Light 11h 40m
Length of Day
10h 44m
Tomorrow will be 2m 31s shorter.
New Moon, 0% of the Moon is Illuminated
Today
New Moon
Oct 30
First Quarter
Nov 6
Full
Nov 14
Last Quarter
Nov 22
New

Today's Extremes

State Highs State Lows

Community

WunderPhotos

Upload Photos

1,764,511 photos uploaded!

WunderBlogs® & News

Nearby

Snow Depth

Station Depth Elevation
No new snow has been reported.

Earthquake Activity

City Distance Mag. Time & Date
No recent earthquake activity has been reported nearby.
Minimum magnitude displayed is 2.5.

Coastal Water Temperatures

Place Temperature
No Stations Reporting

Nearby Weather Stations